createdAt,value
2024-05-09T00:01:57.382Z,64.27
2024-05-09T00:04:29.057Z,63.46
2024-05-09T00:07:00.826Z,63.11
2024-05-09T00:09:32.215Z,63.07
2024-05-09T00:12:03.882Z,62.93
2024-05-09T00:14:35.678Z,64.55
2024-05-09T00:17:07.757Z,64.10
2024-05-09T00:19:39.448Z,64.58
2024-05-09T00:22:11.301Z,65.50
2024-05-09T00:24:42.952Z,65.19
2024-05-09T00:27:14.625Z,64.71
2024-05-09T00:29:45.926Z,64.39
2024-05-09T00:32:17.632Z,65.00
2024-05-09T00:34:49.255Z,64.43
2024-05-09T00:37:21.832Z,64.07
2024-05-09T00:39:53.510Z,63.93
2024-05-09T00:42:24.992Z,64.52
2024-05-09T00:44:56.484Z,65.23
2024-05-09T00:47:28.164Z,66.86
2024-05-09T00:50:00.472Z,66.70
2024-05-09T00:52:32.577Z,68.43
2024-05-09T00:55:04.359Z,68.19
2024-05-09T00:57:36.066Z,66.65
2024-05-09T01:00:22.315Z,66.22
2024-05-09T01:03:01.522Z,68.46
2024-05-09T01:05:34.319Z,67.99
2024-05-09T01:08:07.633Z,67.61
2024-05-09T01:10:41.753Z,68.57
2024-05-09T01:13:15.624Z,68.95
2024-05-09T01:15:47.972Z,67.59
2024-05-09T01:18:20.033Z,69.62
2024-05-09T01:20:52.036Z,70.04
2024-05-09T01:23:23.606Z,68.48
2024-05-09T01:25:55.354Z,68.05
2024-05-09T01:28:26.863Z,67.96
2024-05-09T01:30:58.419Z,67.80
2024-05-09T01:33:30.160Z,69.31
2024-05-09T01:36:01.868Z,69.73
2024-05-09T01:38:33.523Z,70.25
2024-05-09T01:41:05.433Z,69.82
2024-05-09T01:43:36.993Z,71.31
2024-05-09T01:46:13.031Z,72.83
2024-05-09T01:48:44.972Z,70.49
2024-05-09T01:51:16.691Z,70.68
2024-05-09T01:53:48.564Z,74.05
2024-05-09T01:56:20.131Z,75.24
2024-05-09T01:58:51.856Z,75.02
2024-05-09T02:01:23.441Z,75.88
2024-05-09T02:03:55.301Z,75.09
2024-05-09T02:06:26.940Z,74.09
2024-05-09T02:08:58.375Z,72.22
2024-05-09T02:11:29.971Z,74.36
2024-05-09T02:14:01.701Z,74.31
2024-05-09T02:16:33.193Z,74.70
2024-05-09T02:19:04.929Z,75.63
2024-05-09T02:21:36.911Z,77.28
2024-05-09T02:24:08.787Z,76.77
2024-05-09T02:26:40.424Z,75.54
2024-05-09T02:29:12.079Z,76.38
2024-05-09T02:31:43.677Z,76.70
2024-05-09T02:34:15.524Z,78.81
2024-05-09T02:36:47.236Z,78.50
2024-05-09T02:39:18.704Z,79.35
2024-05-09T02:41:50.281Z,78.92
2024-05-09T02:44:21.980Z,81.01
2024-05-09T02:46:53.521Z,76.85
2024-05-09T02:49:25.048Z,78.42
2024-05-09T02:51:56.722Z,80.05
2024-05-09T02:54:28.289Z,79.87
2024-05-09T02:56:59.945Z,80.56
2024-05-09T02:59:31.492Z,80.18
2024-05-09T03:02:03.062Z,80.58
2024-05-09T03:04:34.953Z,81.25
2024-05-09T03:07:07.043Z,81.12
2024-05-09T03:09:38.609Z,82.42
2024-05-09T03:12:10.603Z,83.87
2024-05-09T03:14:42.183Z,82.37
2024-05-09T03:17:14.027Z,80.99
2024-05-09T03:19:45.803Z,80.64
2024-05-09T03:22:17.568Z,82.02
2024-05-09T03:24:49.172Z,84.36
2024-05-09T03:27:20.761Z,83.04
2024-05-09T03:29:52.195Z,84.16
2024-05-09T03:32:23.831Z,83.30
2024-05-09T03:34:55.352Z,82.76
2024-05-09T03:37:27.066Z,79.21
2024-05-09T03:39:58.632Z,82.47
2024-05-09T03:42:30.134Z,82.17
2024-05-09T03:45:01.618Z,78.23
2024-05-09T03:47:35.348Z,78.04
2024-05-09T03:50:15.143Z,78.98
2024-05-09T03:52:50.348Z,77.32
2024-05-09T03:55:21.937Z,77.18
2024-05-09T03:57:53.549Z,76.17
2024-05-09T04:00:31.217Z,75.97
2024-05-09T04:03:11.797Z,76.13
2024-05-09T04:05:45.023Z,76.07
2024-05-09T04:08:17.922Z,76.00
2024-05-09T04:10:49.395Z,76.23
2024-05-09T04:13:20.892Z,75.51
2024-05-09T04:15:52.241Z,75.23
2024-05-09T04:18:23.770Z,75.28
2024-05-09T04:20:56.500Z,75.36
2024-05-09T04:23:28.111Z,75.58
2024-05-09T04:26:04.140Z,75.41
2024-05-09T04:28:35.737Z,75.50
2024-05-09T04:31:07.431Z,75.17
2024-05-09T04:33:39.175Z,75.04
2024-05-09T04:36:11.172Z,74.80
2024-05-09T04:38:42.625Z,74.68
2024-05-09T04:41:14.283Z,74.74
2024-05-09T04:43:45.749Z,74.24
2024-05-09T04:46:17.126Z,74.72
2024-05-09T04:48:48.778Z,74.47
2024-05-09T04:51:20.530Z,74.79
2024-05-09T04:53:52.255Z,74.44
2024-05-09T04:56:24.001Z,74.36
2024-05-09T04:58:55.674Z,74.33
2024-05-09T05:01:27.471Z,74.18
2024-05-09T05:03:59.500Z,73.91
2024-05-09T05:06:31.185Z,73.59
2024-05-09T05:09:02.830Z,73.34
2024-05-09T05:11:34.448Z,73.14
2024-05-09T05:14:06.006Z,73.80
2024-05-09T05:16:38.086Z,73.13
2024-05-09T05:19:12.031Z,72.70
2024-05-09T05:21:45.030Z,72.91
2024-05-09T05:24:16.551Z,72.57
2024-05-09T05:26:48.158Z,71.97
2024-05-09T05:29:20.995Z,72.08
2024-05-09T05:31:53.030Z,71.72
2024-05-09T05:34:24.747Z,71.37
2024-05-09T05:36:56.212Z,70.82
2024-05-09T05:39:28.043Z,70.40
2024-05-09T05:41:59.595Z,69.92
2024-05-09T05:44:31.209Z,69.58
2024-05-09T05:47:02.879Z,69.25
2024-05-09T05:49:34.636Z,69.41
2024-05-09T05:52:06.883Z,69.28
2024-05-09T05:54:38.522Z,68.90
2024-05-09T05:57:10.112Z,68.38
2024-05-09T05:59:41.685Z,68.16
2024-05-09T06:02:13.827Z,67.95
2024-05-09T06:04:45.914Z,67.66
2024-05-09T06:07:17.479Z,67.83
2024-05-09T06:09:50.584Z,66.86
2024-05-09T06:12:22.299Z,66.90
2024-05-09T06:14:54.091Z,66.51
2024-05-09T06:17:25.919Z,66.28
2024-05-09T06:19:57.881Z,65.73
2024-05-09T06:22:29.608Z,65.51
2024-05-09T06:25:01.155Z,65.17
2024-05-09T06:27:32.853Z,64.80
2024-05-09T06:30:05.159Z,64.20
2024-05-09T06:32:37.090Z,63.82
2024-05-09T06:35:09.718Z,63.32
2024-05-09T06:37:41.687Z,63.42
2024-05-09T06:40:17.449Z,62.88
2024-05-09T06:42:50.359Z,61.67
2024-05-09T06:45:22.097Z,61.59
2024-05-09T06:47:53.735Z,61.52
2024-05-09T06:50:28.534Z,60.88
2024-05-09T06:53:07.664Z,61.05
2024-05-09T06:55:39.353Z,61.29
2024-05-09T06:58:11.362Z,61.01
2024-05-09T07:00:43.014Z,61.05
2024-05-09T07:03:18.415Z,60.80
2024-05-09T07:05:51.131Z,60.05
2024-05-09T07:08:22.688Z,60.12
2024-05-09T07:10:54.797Z,60.58
2024-05-09T07:13:26.318Z,60.09
2024-05-09T07:15:57.951Z,59.91
2024-05-09T07:18:29.788Z,59.37
2024-05-09T07:21:01.812Z,58.87
2024-05-09T07:23:33.642Z,58.06
2024-05-09T07:26:05.694Z,57.69
2024-05-09T07:28:37.183Z,57.71
2024-05-09T07:31:09.570Z,58.07
2024-05-09T07:33:41.155Z,58.23
2024-05-09T07:36:12.920Z,56.75
2024-05-09T07:38:44.489Z,56.86
2024-05-09T07:41:16.621Z,56.89
2024-05-09T07:43:48.771Z,55.83
2024-05-09T07:50:35.417Z,54.75
2024-05-09T07:53:17.306Z,54.15
2024-05-09T07:54:38.619Z,53.38
2024-05-09T07:57:10.287Z,53.52
2024-05-09T07:59:41.853Z,52.81
2024-05-09T08:02:13.670Z,52.56
2024-05-09T08:04:45.572Z,52.36
2024-05-09T08:07:17.739Z,51.13
2024-05-09T08:09:49.275Z,50.96
2024-05-09T08:12:20.847Z,50.45
2024-05-09T08:14:53.101Z,50.03
2024-05-09T08:17:24.864Z,49.94
2024-05-09T08:19:56.948Z,50.04
2024-05-09T08:22:32.075Z,49.75
2024-05-09T08:25:03.642Z,49.93
2024-05-09T08:27:36.779Z,49.23
2024-05-09T08:30:18.446Z,49.28
2024-05-09T08:32:53.432Z,48.96
2024-05-09T08:35:25.212Z,48.99
2024-05-09T08:37:57.151Z,48.65
2024-05-09T08:40:34.439Z,47.96
2024-05-09T08:43:12.030Z,48.00
2024-05-09T08:45:46.016Z,47.64
2024-05-09T08:48:19.068Z,47.21
2024-05-09T08:50:54.096Z,46.90
2024-05-09T08:53:27.425Z,46.14
2024-05-09T08:56:02.169Z,45.83
2024-05-09T08:58:37.399Z,45.56
2024-05-09T09:01:09.856Z,45.17
2024-05-09T09:03:43.431Z,44.15
2024-05-09T09:06:18.188Z,44.09
2024-05-09T09:08:50.078Z,43.40
2024-05-09T09:11:22.017Z,43.45
2024-05-09T09:13:53.632Z,43.05
2024-05-09T09:16:35.524Z,42.68
2024-05-09T09:19:07.920Z,42.33
2024-05-09T09:21:39.823Z,41.86
2024-05-09T09:24:11.630Z,41.87
2024-05-09T09:26:45.460Z,41.53
2024-05-09T09:29:21.663Z,41.30
2024-05-09T09:32:03.795Z,40.72
2024-05-09T09:34:36.470Z,40.32
2024-05-09T09:37:09.901Z,39.94
2024-05-09T09:39:48.930Z,39.20
2024-05-09T09:42:23.413Z,38.42
2024-05-09T09:45:04.231Z,39.23
2024-05-09T09:47:39.824Z,38.41
2024-05-09T09:50:16.870Z,38.66
2024-05-09T09:52:53.196Z,37.86
2024-05-09T09:55:26.749Z,37.50
2024-05-09T09:57:58.412Z,38.47
2024-05-09T10:00:33.523Z,36.93
2024-05-09T10:03:06.717Z,37.80
2024-05-09T10:05:41.195Z,37.20
2024-05-09T10:08:16.444Z,36.40
2024-05-09T10:10:49.858Z,36.83
2024-05-09T10:13:21.862Z,36.01
2024-05-09T10:15:55.528Z,36.12
2024-05-09T10:18:38.820Z,36.12
2024-05-09T10:21:20.588Z,35.83
2024-05-09T10:24:03.982Z,35.05
2024-05-09T10:26:37.130Z,34.16
2024-05-09T10:29:15.770Z,33.99
2024-05-09T10:31:48.477Z,33.88
2024-05-09T10:34:21.918Z,33.50
2024-05-09T10:37:02.803Z,33.26
2024-05-09T10:39:40.008Z,32.41
2024-05-09T10:42:13.541Z,32.65
2024-05-09T10:44:44.938Z,32.34
2024-05-09T10:47:16.728Z,33.29
2024-05-09T10:49:48.869Z,32.68
2024-05-09T10:52:24.184Z,32.13
2024-05-09T10:54:56.637Z,31.02
2024-05-09T10:57:38.619Z,31.35
2024-05-09T11:00:19.055Z,31.49
2024-05-09T11:02:56.683Z,30.37
2024-05-09T11:05:30.258Z,31.31
2024-05-09T11:08:02.000Z,31.34
2024-05-09T11:10:34.580Z,30.95
2024-05-09T11:13:06.729Z,30.53
2024-05-09T11:15:42.251Z,29.82
2024-05-09T11:18:25.885Z,29.42
2024-05-09T11:20:59.242Z,28.72
2024-05-09T11:23:31.405Z,28.35
2024-05-09T11:26:03.010Z,28.48
2024-05-09T11:28:34.686Z,27.81
2024-05-09T11:31:10.853Z,27.79
2024-05-09T11:33:44.652Z,28.11
2024-05-09T11:36:17.154Z,28.29
2024-05-09T11:38:48.635Z,28.12
2024-05-09T11:41:20.864Z,27.83
2024-05-09T11:43:52.396Z,26.63
2024-05-09T11:46:24.023Z,26.58
2024-05-09T11:48:55.719Z,25.39
2024-05-09T11:51:27.864Z,25.42
2024-05-09T11:53:59.327Z,26.04
2024-05-09T11:56:31.170Z,26.97
2024-05-09T11:59:02.893Z,26.77
2024-05-09T12:01:34.670Z,26.47
2024-05-09T12:04:07.183Z,26.20
2024-05-09T12:06:39.253Z,26.43
2024-05-09T12:09:11.040Z,25.43
2024-05-09T12:11:42.740Z,25.59
2024-05-09T12:14:14.332Z,25.28
2024-05-09T12:16:46.453Z,24.56
2024-05-09T12:19:18.572Z,24.66
2024-05-09T12:21:50.427Z,24.61
2024-05-09T12:24:23.796Z,25.75
2024-05-09T12:26:55.295Z,24.91
2024-05-09T12:29:27.877Z,24.13
2024-05-09T12:31:59.645Z,24.42
2024-05-09T12:34:31.355Z,23.30
2024-05-09T12:37:02.861Z,23.29
2024-05-09T12:39:34.406Z,23.35
2024-05-09T12:42:06.462Z,24.12
2024-05-09T12:44:37.823Z,24.06
2024-05-09T12:47:09.811Z,24.42
2024-05-09T12:49:41.431Z,24.53
2024-05-09T12:52:13.062Z,24.56
2024-05-09T12:54:45.384Z,25.07
2024-05-09T12:57:17.957Z,25.13
2024-05-09T12:59:51.638Z,25.36
2024-05-09T13:02:23.349Z,25.65
2024-05-09T13:04:56.885Z,25.26
2024-05-09T13:07:28.730Z,25.79
2024-05-09T13:10:00.331Z,25.73
2024-05-09T13:12:33.207Z,26.14
2024-05-09T13:15:05.208Z,26.45
2024-05-09T13:17:36.957Z,26.60
2024-05-09T13:20:18.684Z,26.55
2024-05-09T13:22:57.413Z,26.50
2024-05-09T13:25:29.038Z,26.06
2024-05-09T13:28:00.969Z,26.93
2024-05-09T13:30:40.068Z,26.64
2024-05-09T13:33:14.578Z,27.22
2024-05-09T13:35:49.752Z,27.64
2024-05-09T13:38:22.813Z,27.35
2024-05-09T13:40:54.626Z,27.22
2024-05-09T13:43:26.542Z,27.31
2024-05-09T13:45:58.432Z,27.24
2024-05-09T13:48:30.784Z,28.09
2024-05-09T13:51:02.449Z,28.12
2024-05-09T13:53:33.894Z,28.90
2024-05-09T13:56:05.877Z,28.79
2024-05-09T13:58:37.487Z,28.75
2024-05-09T14:01:09.151Z,28.68
2024-05-09T14:03:40.919Z,28.81
2024-05-09T14:06:13.275Z,27.30
2024-05-09T14:08:45.265Z,27.37
2024-05-09T14:11:16.731Z,27.34
2024-05-09T14:13:48.377Z,27.66
2024-05-09T14:16:20.102Z,27.64
2024-05-09T14:18:51.999Z,27.79
2024-05-09T14:21:23.788Z,27.31
2024-05-09T14:23:55.380Z,27.77
2024-05-09T14:26:27.007Z,26.89
2024-05-09T14:28:58.589Z,26.36
2024-05-09T14:31:30.290Z,26.12
2024-05-09T14:34:02.333Z,26.22
2024-05-09T14:36:34.174Z,26.40
2024-05-09T14:39:05.799Z,26.29
2024-05-09T14:41:38.933Z,26.45
2024-05-09T14:44:12.579Z,27.10
2024-05-09T14:46:45.253Z,27.84
2024-05-09T14:49:16.906Z,28.37
2024-05-09T14:51:49.366Z,28.56
2024-05-09T14:54:21.133Z,28.51
2024-05-09T14:56:54.672Z,28.70
2024-05-09T14:59:26.263Z,28.63
2024-05-09T15:01:57.856Z,28.82
2024-05-09T15:04:29.822Z,29.00
2024-05-09T15:07:02.790Z,28.44
2024-05-09T15:09:38.085Z,28.02
2024-05-09T15:12:10.062Z,27.60
2024-05-09T15:14:41.554Z,27.89
2024-05-09T15:17:13.077Z,27.53
2024-05-09T15:19:47.215Z,26.48
2024-05-09T15:22:19.293Z,25.26
2024-05-09T15:24:50.873Z,24.20
2024-05-09T15:27:22.512Z,24.16
2024-05-09T15:29:54.027Z,23.89
2024-05-09T15:32:29.435Z,23.36
2024-05-09T15:35:01.190Z,23.07
2024-05-09T15:37:32.673Z,22.54
2024-05-09T15:40:07.431Z,22.56
2024-05-09T15:42:43.057Z,22.54
2024-05-09T15:45:14.823Z,23.42
2024-05-09T15:47:46.521Z,23.65
2024-05-09T15:50:28.187Z,24.13
2024-05-09T15:53:08.167Z,24.71
2024-05-09T15:55:41.729Z,24.78
2024-05-09T15:58:13.939Z,24.57
2024-05-09T16:00:47.898Z,25.34
2024-05-09T16:03:22.428Z,25.44
2024-05-09T16:05:57.270Z,26.21
2024-05-09T16:08:29.134Z,26.75
2024-05-09T16:11:00.861Z,27.31
2024-05-09T16:13:32.566Z,27.43
2024-05-09T16:16:04.711Z,27.68
2024-05-09T16:18:36.698Z,28.21
2024-05-09T16:21:08.565Z,28.70
2024-05-09T16:23:40.527Z,28.86
2024-05-09T16:26:12.079Z,29.48
2024-05-09T16:28:43.576Z,29.69
2024-05-09T16:31:15.288Z,29.83
2024-05-09T16:33:47.135Z,30.07
2024-05-09T16:36:18.812Z,30.55
2024-05-09T16:38:50.405Z,30.82
2024-05-09T16:41:21.865Z,31.50
2024-05-09T16:43:53.442Z,31.41
2024-05-09T16:46:25.192Z,31.54
2024-05-09T16:48:56.995Z,31.93
2024-05-09T16:51:28.609Z,31.64
2024-05-09T16:54:00.247Z,32.58
2024-05-09T16:56:31.879Z,32.49
2024-05-09T16:59:03.801Z,32.30
2024-05-09T17:01:35.486Z,32.37
2024-05-09T17:04:07.486Z,32.79
2024-05-09T17:06:39.469Z,32.75
2024-05-09T17:09:12.073Z,32.77
2024-05-09T17:11:47.126Z,33.09
2024-05-09T17:14:18.630Z,32.98
2024-05-09T17:16:50.292Z,33.15
2024-05-09T17:19:21.866Z,33.41
2024-05-09T17:21:53.531Z,33.47
2024-05-09T17:24:25.048Z,33.62
2024-05-09T17:26:56.716Z,33.64
2024-05-09T17:29:28.658Z,33.86
2024-05-09T17:32:00.152Z,33.93
2024-05-09T17:34:31.807Z,34.26
2024-05-09T17:37:03.586Z,34.43
2024-05-09T17:39:35.470Z,35.38
2024-05-09T17:42:08.047Z,35.29
2024-05-09T17:44:39.466Z,35.63
2024-05-09T17:47:11.179Z,36.27
2024-05-09T17:49:42.937Z,36.06
2024-05-09T17:52:14.507Z,36.40
2024-05-09T17:54:46.684Z,36.74
2024-05-09T17:57:18.304Z,36.74
2024-05-09T17:59:51.807Z,37.08
2024-05-09T18:02:23.479Z,37.80
2024-05-09T18:04:55.190Z,38.40
2024-05-09T18:07:26.796Z,38.31
2024-05-09T18:09:58.291Z,38.60
2024-05-09T18:12:29.842Z,38.80
2024-05-09T18:15:01.475Z,39.10
2024-05-09T18:17:33.248Z,40.19
2024-05-09T18:20:05.508Z,39.88
2024-05-09T18:22:37.383Z,39.74
2024-05-09T18:25:09.599Z,40.83
2024-05-09T18:27:41.952Z,41.72
2024-05-09T18:30:24.057Z,42.92
2024-05-09T18:32:59.969Z,44.17
2024-05-09T18:35:31.699Z,46.10
2024-05-09T18:38:03.360Z,47.59
2024-05-09T18:40:37.511Z,47.56
2024-05-09T18:43:10.336Z,48.08
2024-05-09T18:45:42.099Z,48.31
2024-05-09T18:48:14.154Z,49.90
2024-05-09T18:50:46.017Z,50.63
2024-05-09T18:53:18.168Z,50.56
2024-05-09T18:55:49.630Z,51.81
2024-05-09T18:58:21.301Z,52.00
2024-05-09T19:00:54.999Z,52.35
2024-05-09T19:03:27.714Z,52.29
2024-05-09T19:05:59.838Z,51.96
2024-05-09T19:08:31.630Z,53.46
2024-05-09T19:11:03.245Z,53.37
2024-05-09T19:13:34.886Z,53.57
2024-05-09T19:16:07.676Z,54.22
2024-05-09T19:18:39.441Z,52.94
2024-05-09T19:21:11.532Z,52.92
2024-05-09T19:23:50.424Z,53.61
2024-05-09T19:26:24.616Z,52.56
2024-05-09T19:28:56.176Z,52.76
2024-05-09T19:31:28.767Z,51.52
2024-05-09T19:34:00.326Z,50.99
2024-05-09T19:36:32.309Z,52.27
2024-05-09T19:39:03.754Z,52.28
2024-05-09T19:41:35.143Z,52.86
2024-05-09T19:44:06.858Z,53.82
2024-05-09T19:46:39.673Z,53.32
2024-05-09T19:49:11.589Z,53.80
2024-05-09T19:51:43.440Z,54.79
2024-05-09T19:54:15.349Z,56.01
2024-05-09T19:56:46.784Z,55.61
2024-05-09T19:59:18.359Z,55.06
2024-05-09T20:01:50.207Z,56.13
2024-05-09T20:04:22.148Z,55.33
2024-05-09T20:06:54.172Z,56.28
2024-05-09T20:09:25.856Z,55.29
2024-05-09T20:11:57.410Z,54.90
2024-05-09T20:14:28.970Z,56.40
2024-05-09T20:17:01.224Z,57.67
2024-05-09T20:19:32.821Z,55.84
2024-05-09T20:22:04.588Z,55.89
2024-05-09T20:24:36.088Z,56.29
2024-05-09T20:27:08.025Z,55.14
2024-05-09T20:29:39.547Z,57.87
2024-05-09T20:32:11.330Z,57.38
2024-05-09T20:34:43.216Z,56.22
2024-05-09T20:37:14.929Z,55.35
2024-05-09T20:39:46.790Z,55.07
2024-05-09T20:42:18.396Z,55.30
2024-05-09T20:44:50.460Z,56.19
2024-05-09T20:47:21.913Z,55.50
2024-05-09T20:49:53.495Z,56.27
2024-05-09T20:52:25.158Z,56.87
2024-05-09T20:54:56.658Z,57.04
2024-05-09T20:57:28.245Z,57.88
2024-05-09T20:59:59.780Z,57.43
2024-05-09T21:02:31.565Z,57.42
2024-05-09T21:05:03.446Z,57.08
2024-05-09T21:07:35.195Z,57.16
2024-05-09T21:10:15.508Z,57.23
2024-05-09T21:12:51.809Z,58.21
2024-05-09T21:15:23.420Z,58.52
2024-05-09T21:17:55.317Z,58.37
2024-05-09T21:23:02.143Z,58.06
2024-05-09T21:25:34.349Z,58.68
2024-05-09T21:28:06.355Z,58.35
2024-05-09T21:30:41.880Z,57.83
2024-05-09T21:33:15.528Z,60.35
2024-05-09T21:35:47.543Z,62.96
2024-05-09T21:38:19.010Z,62.81
2024-05-09T21:40:50.570Z,62.12
2024-05-09T21:43:22.563Z,61.80
2024-05-09T21:45:54.276Z,61.11
2024-05-09T21:48:25.768Z,61.39
2024-05-09T21:50:57.214Z,60.39
2024-05-09T21:53:28.608Z,60.42
2024-05-09T21:56:00.163Z,61.15
2024-05-09T21:58:31.774Z,60.61
2024-05-09T22:01:05.176Z,61.08
2024-05-09T22:03:36.902Z,63.22
2024-05-09T22:06:09.097Z,63.83
2024-05-09T22:08:40.643Z,64.48
2024-05-09T22:11:12.315Z,63.06
2024-05-09T22:13:43.992Z,64.32
2024-05-09T22:16:15.418Z,62.50
2024-05-09T22:18:47.231Z,61.94
2024-05-09T22:21:18.842Z,61.90
2024-05-09T22:23:50.408Z,62.18
2024-05-09T22:26:22.047Z,62.51
2024-05-09T22:28:53.566Z,62.47
2024-05-09T22:31:25.264Z,61.98
2024-05-09T22:33:57.221Z,62.77
2024-05-09T22:36:28.887Z,61.72
2024-05-09T22:39:00.394Z,62.28
2024-05-09T22:41:31.856Z,63.09
2024-05-09T22:44:03.497Z,63.07
2024-05-09T22:46:34.880Z,63.79
2024-05-09T22:49:06.898Z,63.84
2024-05-09T22:51:40.805Z,68.44
2024-05-09T22:54:12.416Z,71.30
2024-05-09T22:56:43.957Z,67.38
2024-05-09T22:59:15.313Z,66.09
2024-05-09T23:01:47.010Z,71.89
2024-05-09T23:04:18.921Z,69.00
2024-05-09T23:06:51.839Z,67.56
2024-05-09T23:09:23.311Z,66.79
2024-05-09T23:11:54.933Z,66.54
2024-05-09T23:14:27.208Z,66.35
2024-05-09T23:16:59.103Z,66.99
2024-05-09T23:19:30.561Z,73.23
2024-05-09T23:22:02.072Z,70.01
2024-05-09T23:24:35.165Z,68.52
2024-05-09T23:27:07.034Z,70.25
2024-05-09T23:29:38.724Z,73.35
2024-05-09T23:32:10.439Z,73.61
2024-05-09T23:34:41.993Z,73.40
2024-05-09T23:37:13.731Z,73.01
2024-05-09T23:39:45.632Z,69.96
2024-05-09T23:42:17.256Z,68.68
2024-05-09T23:44:48.808Z,70.14
2024-05-09T23:47:20.608Z,69.83
2024-05-09T23:49:52.157Z,69.83
2024-05-09T23:52:24.606Z,74.01
2024-05-09T23:54:56.266Z,71.10
2024-05-09T23:57:27.706Z,69.52
